createdAt,value
2022-09-22T00:02:48.759Z,147915.28
2022-09-22T00:07:53.982Z,147979.50
2022-09-22T00:12:58.360Z,147994.97
2022-09-22T00:18:04.448Z,148038.63
2022-09-22T00:23:09.188Z,148029.63
2022-09-22T00:28:13.704Z,148003.91
2022-09-22T00:33:19.458Z,147987.25
2022-09-22T00:38:23.815Z,148039.91
2022-09-22T00:43:30.551Z,148016.81
2022-09-22T00:48:40.515Z,148037.38
2022-09-22T00:53:45.308Z,148021.91
2022-09-22T00:58:53.503Z,148028.34
2022-09-22T01:03:59.661Z,148036.03
2022-09-22T01:09:04.963Z,148016.81
2022-09-22T01:14:33.636Z,148059.22
2022-09-22T01:20:26.591Z,148092.59
2022-09-22T01:26:03.205Z,148123.47
2022-09-22T01:31:16.496Z,148120.84
2022-09-22T01:36:28.689Z,148104.16
2022-09-22T01:41:59.297Z,148056.59
2022-09-22T01:47:12.313Z,148073.31
2022-09-22T01:52:22.119Z,148102.91
2022-09-22T01:57:39.708Z,148115.75
2022-09-22T02:02:53.334Z,148155.59
2022-09-22T02:08:03.018Z,148154.28
2022-09-22T02:13:08.023Z,148143.97
2022-09-22T02:18:20.693Z,148102.91
2022-09-22T02:23:25.176Z,148120.84
2022-09-22T02:28:33.106Z,148133.75
2022-09-22T02:33:42.764Z,148135.03
2022-09-22T02:38:54.650Z,148138.88
2022-09-22T02:44:06.722Z,148102.91
2022-09-22T02:49:17.965Z,148138.88
2022-09-22T02:54:23.065Z,148109.28
2022-09-22T02:59:27.418Z,148099.00
2022-09-22T03:04:33.782Z,148096.44
2022-09-22T03:09:38.107Z,148038.63
2022-09-22T03:14:42.576Z,148050.19
2022-09-22T03:19:48.456Z,148075.88
2022-09-22T03:24:53.080Z,148077.16
2022-09-22T03:29:57.453Z,148069.47
2022-09-22T03:35:03.722Z,148113.19
2022-09-22T03:40:09.813Z,148077.16
2022-09-22T03:45:15.315Z,148038.63
2022-09-22T03:50:21.268Z,148083.59
2022-09-22T03:55:26.059Z,148115.75
2022-09-22T04:00:30.383Z,148146.59
2022-09-22T04:05:37.679Z,148159.44
2022-09-22T04:10:42.706Z,148146.59
2022-09-22T04:15:48.496Z,148115.75
2022-09-22T04:20:59.091Z,148090.00
2022-09-22T04:26:03.646Z,148133.75
2022-09-22T04:31:08.604Z,148156.88
2022-09-22T04:36:15.087Z,148186.41
2022-09-22T04:41:19.688Z,148182.56
2022-09-22T04:46:25.433Z,148178.72
2022-09-22T04:51:31.394Z,148163.28
2022-09-22T04:56:35.809Z,148172.28
2022-09-22T05:01:40.593Z,148165.84
2022-09-22T05:06:47.407Z,148158.16
2022-09-22T05:11:52.860Z,148160.72
2022-09-22T05:16:58.090Z,148187.72
2022-09-22T05:22:04.444Z,148143.97
2022-09-22T05:27:08.885Z,148102.91
2022-09-22T05:32:13.483Z,148084.88
2022-09-22T05:37:19.955Z,148061.75
2022-09-22T05:42:24.395Z,148109.28
2022-09-22T05:47:28.854Z,148146.59
2022-09-22T05:52:35.161Z,148163.28
2022-09-22T05:57:43.447Z,148258.47
2022-09-22T06:02:48.120Z,148338.19
2022-09-22T06:08:03.777Z,148383.25
2022-09-22T06:13:10.523Z,148384.53
2022-09-22T06:18:16.935Z,148388.38
2022-09-22T06:23:27.674Z,148434.66
2022-09-22T06:28:32.670Z,148514.47
2022-09-22T06:33:37.485Z,148563.34
2022-09-22T06:38:44.915Z,148612.28
2022-09-22T06:43:50.605Z,148644.47
2022-09-22T06:48:57.638Z,148645.75
2022-09-22T06:54:07.508Z,148671.47
2022-09-22T06:59:14.556Z,148643.19
2022-09-22T07:04:20.400Z,148586.50
2022-09-22T07:09:27.340Z,148661.19
2022-09-22T07:14:33.647Z,148699.88
2022-09-22T07:19:38.387Z,148756.53
2022-09-22T07:24:44.789Z,148720.47
2022-09-22T07:29:49.828Z,148744.94
2022-09-22T07:34:54.717Z,148795.19
2022-09-22T07:40:03.702Z,148907.25
2022-09-22T07:45:17.381Z,149193.50
2022-09-22T07:50:21.738Z,149486.41
2022-09-22T07:55:27.510Z,150250.22
2022-09-22T08:00:36.791Z,150347.31
2022-09-22T08:05:41.023Z,149987.66
2022-09-22T08:10:46.751Z,150034.19
2022-09-22T08:15:56.975Z,149800.28
2022-09-22T08:21:02.090Z,149662.00
2022-09-22T08:26:10.882Z,149897.16
2022-09-22T08:31:20.363Z,149854.56
2022-09-22T08:36:28.412Z,149572.91
2022-09-22T08:41:44.515Z,149752.41
2022-09-22T08:46:50.004Z,149881.66
2022-09-22T08:52:00.696Z,149725.31
2022-09-22T08:57:22.905Z,149941.16
2022-09-22T09:02:43.910Z,150172.63
2022-09-22T09:08:00.582Z,150021.28
2022-09-22T09:13:23.114Z,149928.19
2022-09-22T09:18:35.341Z,149890.72
2022-09-22T09:29:22.464Z,149686.53
2022-09-22T09:34:30.631Z,149566.44
2022-09-22T09:39:36.202Z,149605.19
2022-09-22T09:44:42.447Z,149714.97
2022-09-22T09:49:52.845Z,149609.06
2022-09-22T09:54:57.467Z,149596.16
2022-09-22T10:00:32.905Z,149815.75
2022-09-22T10:05:39.203Z,149866.19
2022-09-22T10:10:44.107Z,149947.56
2022-09-22T10:16:22.840Z,149961.78
2022-09-22T10:21:29.106Z,150105.38
2022-09-22T10:26:34.923Z,150067.84
2022-09-22T10:31:42.127Z,149990.25
2022-09-22T10:36:48.529Z,149822.25
2022-09-22T10:41:53.659Z,149678.75
2022-09-22T10:47:33.039Z,149408.91
2022-09-22T10:52:46.532Z,149281.19
2022-09-22T10:58:07.677Z,149303.13
2022-09-22T11:03:39.447Z,149363.75
2022-09-22T11:09:09.918Z,149402.47
2022-09-22T11:14:29.836Z,149420.56
2022-09-22T11:19:59.144Z,149461.84
2022-09-22T11:25:19.963Z,149554.81
2022-09-22T11:30:25.091Z,149601.28
2022-09-22T11:35:55.454Z,149633.56
2022-09-22T11:41:21.177Z,149572.91
2022-09-22T11:46:40.963Z,149494.13
2022-09-22T11:52:08.114Z,149095.50
2022-09-22T11:57:16.142Z,148878.88
2022-09-22T12:02:28.660Z,148876.31
2022-09-22T12:07:45.258Z,148944.66
2022-09-22T12:12:51.958Z,148909.81
2022-09-22T12:18:05.867Z,148924.03
2022-09-22T12:23:21.580Z,149266.97
2022-09-22T12:28:28.397Z,149318.59
2022-09-22T12:33:35.711Z,149516.06
2022-09-22T12:38:42.570Z,149915.25
2022-09-22T12:43:49.511Z,149694.28
2022-09-22T12:48:55.913Z,149832.59
2022-09-22T12:54:48.797Z,149908.84
2022-09-22T13:00:32.879Z,149767.97
2022-09-22T13:05:47.017Z,149571.59
2022-09-22T13:10:58.667Z,149532.88
2022-09-22T13:16:06.520Z,149504.47
2022-09-22T13:21:25.314Z,149426.97
2022-09-22T13:26:33.659Z,149377.97
2022-09-22T13:31:45.704Z,149398.63
2022-09-22T13:36:54.376Z,149500.59
2022-09-22T13:42:01.326Z,149446.38
2022-09-22T13:47:18.975Z,149385.66
2022-09-22T13:52:30.540Z,149357.31
2022-09-22T13:57:38.036Z,149494.13
2022-09-22T14:02:46.828Z,150374.47
2022-09-22T14:08:11.412Z,151015.78
2022-09-22T14:13:42.885Z,151114.38
2022-09-22T14:18:54.153Z,150533.72
2022-09-22T14:24:03.233Z,150057.50
2022-09-22T14:29:20.407Z,149761.50
2022-09-22T14:34:31.423Z,149628.44
2022-09-22T14:39:36.492Z,149588.38
2022-09-22T14:44:49.553Z,149472.19
2022-09-22T14:50:19.143Z,149500.59
2022-09-22T14:55:32.185Z,149584.53
2022-09-22T15:00:54.846Z,149496.75
2022-09-22T15:06:10.032Z,149405.03
2022-09-22T15:11:14.316Z,149368.91
2022-09-22T15:16:39.885Z,149381.81
2022-09-22T15:21:48.204Z,149379.25
2022-09-22T15:26:53.387Z,149326.34
2022-09-22T15:31:57.805Z,149372.78
2022-09-22T15:37:05.567Z,149374.06
2022-09-22T15:42:12.751Z,149263.13
2022-09-22T15:47:19.328Z,149259.28
2022-09-22T15:52:25.561Z,149138.00
2022-09-22T15:57:31.554Z,149121.25
2022-09-22T16:02:40.606Z,149047.72
2022-09-22T16:07:50.270Z,148993.59
2022-09-22T16:12:54.660Z,148991.03
2022-09-22T16:17:59.456Z,149006.47
2022-09-22T16:23:06.737Z,148992.31
2022-09-22T16:28:12.539Z,149018.06
2022-09-22T16:33:17.116Z,149006.47
2022-09-22T16:38:23.063Z,148934.34
2022-09-22T16:43:27.337Z,148885.34
2022-09-22T16:48:33.674Z,148810.63
2022-09-22T16:53:39.753Z,148805.50
2022-09-22T16:58:43.903Z,148751.41
2022-09-22T17:03:50.635Z,148739.81
2022-09-22T17:08:58.307Z,148715.31
2022-09-22T17:14:11.308Z,148670.19
2022-09-22T17:19:20.295Z,148627.72
2022-09-22T17:24:30.576Z,148627.72
2022-09-22T17:29:35.246Z,148627.72
2022-09-22T17:34:41.705Z,148609.72
2022-09-22T17:39:48.016Z,148625.16
2022-09-22T17:44:53.797Z,148630.28
2022-09-22T17:50:17.805Z,148581.38
2022-09-22T17:55:29.564Z,148590.41
2022-09-22T18:00:38.902Z,148612.28
2022-09-22T18:05:43.501Z,148634.16
2022-09-22T18:10:49.144Z,148620.03
2022-09-22T18:15:57.376Z,148616.13
2022-09-22T18:21:07.485Z,148555.66
2022-09-22T18:26:18.583Z,148487.41
2022-09-22T18:31:23.491Z,148453.97
2022-09-22T18:36:28.053Z,148412.78
2022-09-22T18:41:33.985Z,148366.50
2022-09-22T18:46:38.525Z,148317.66
2022-09-22T18:51:46.824Z,148326.59
2022-09-22T18:56:52.838Z,148311.19
2022-09-22T19:01:57.674Z,148327.88
2022-09-22T19:07:28.585Z,148307.34
2022-09-22T19:12:39.926Z,148338.19
2022-09-22T19:17:45.481Z,148324.06
2022-09-22T19:22:52.663Z,148331.78
2022-09-22T19:27:58.503Z,148336.91
2022-09-22T19:33:03.047Z,148342.06
2022-09-22T19:38:07.947Z,148326.59
2022-09-22T19:43:16.147Z,148322.78
2022-09-22T19:48:21.315Z,148280.31
2022-09-22T19:53:26.005Z,148273.88
2022-09-22T19:58:32.086Z,148244.34
2022-09-22T20:03:36.583Z,148227.59
2022-09-22T20:08:42.645Z,148223.75
2022-09-22T20:14:05.915Z,148216.03
2022-09-22T20:19:10.840Z,148226.31
2022-09-22T20:24:17.442Z,148241.78
2022-09-22T20:29:23.211Z,148270.03
2022-09-22T20:34:27.605Z,148308.63
2022-09-22T20:39:33.579Z,148322.78
2022-09-22T20:44:40.902Z,148340.78
2022-09-22T20:49:50.813Z,148357.47
2022-09-22T20:54:56.187Z,148384.53
2022-09-22T21:00:02.315Z,148401.22
2022-09-22T21:05:07.481Z,148393.53
2022-09-22T21:10:30.447Z,148408.94
2022-09-22T21:15:38.034Z,148421.81
2022-09-22T21:20:42.979Z,148442.41
2022-09-22T21:25:57.586Z,148439.84
2022-09-22T21:31:05.821Z,148437.28
2022-09-22T21:36:14.061Z,148439.84
2022-09-22T21:41:20.569Z,148434.66
2022-09-22T21:46:29.928Z,148434.66
2022-09-22T21:51:41.683Z,148405.13
2022-09-22T21:56:46.678Z,148369.06
2022-09-22T22:01:52.986Z,148347.19
2022-09-22T22:06:57.975Z,148335.63
2022-09-22T22:12:02.742Z,148320.22
2022-09-22T22:17:09.491Z,148329.22
2022-09-22T22:22:15.550Z,148317.66
2022-09-22T22:27:20.095Z,148277.78
2022-09-22T22:32:26.708Z,148261.03
2022-09-22T22:37:31.006Z,148270.03
2022-09-22T22:42:35.448Z,148254.63
2022-09-22T22:47:41.623Z,148239.19
2022-09-22T22:52:46.900Z,148246.91
2022-09-22T22:57:51.182Z,148245.63
2022-09-22T23:02:57.149Z,148246.91
2022-09-22T23:08:02.388Z,148270.03
2022-09-22T23:13:07.833Z,148244.34
2022-09-22T23:18:16.489Z,148275.22
2022-09-22T23:23:25.201Z,148280.31
2022-09-22T23:28:32.298Z,148276.50
2022-09-22T23:33:39.426Z,148273.88
2022-09-22T23:38:45.191Z,148293.19
2022-09-22T23:43:50.234Z,148255.91
2022-09-22T23:48:56.391Z,148273.88
2022-09-22T23:54:01.175Z,148235.34
2022-09-22T23:59:05.830Z,148254.63
